createdAt,value
2023-04-16T00:01:24.242Z,102387.84
2023-04-16T00:03:50.777Z,102392.13
2023-04-16T00:06:17.361Z,102385.88
2023-04-16T00:08:43.863Z,102393.84
2023-04-16T00:11:10.405Z,102386.88
2023-04-16T00:13:37.147Z,102387.84
2023-04-16T00:16:03.695Z,102388.66
2023-04-16T00:18:30.193Z,102397.44
2023-04-16T00:20:56.681Z,102388.72
2023-04-16T00:23:25.155Z,102400.03
2023-04-16T00:25:51.744Z,102389.56
2023-04-16T00:28:18.170Z,102393.19
2023-04-16T00:30:44.627Z,102394.81
2023-04-16T00:33:11.047Z,102390.28
2023-04-16T00:35:37.497Z,102391.19
2023-04-16T00:38:03.933Z,102394.13
2023-04-16T00:40:30.617Z,102394.97
2023-04-16T00:42:56.974Z,102390.44
2023-04-16T00:45:23.393Z,102393.00
2023-04-16T00:47:50.005Z,102407.13
2023-04-16T00:50:17.620Z,102395.78
2023-04-16T00:52:46.837Z,102403.56
2023-04-16T00:55:13.468Z,102394.81
2023-04-16T00:57:39.815Z,102393.84
2023-04-16T01:00:06.976Z,102398.16
2023-04-16T01:02:34.565Z,102390.50
2023-04-16T01:05:02.115Z,102397.47
2023-04-16T01:07:28.741Z,102390.56
2023-04-16T01:09:55.377Z,102395.75
2023-04-16T01:12:21.940Z,102396.69
2023-04-16T01:14:48.750Z,102403.72
2023-04-16T01:17:15.156Z,102390.66
2023-04-16T01:19:43.404Z,102398.47
2023-04-16T01:22:09.762Z,102392.34
2023-04-16T01:24:36.522Z,102395.97
2023-04-16T01:27:03.018Z,102397.69
2023-04-16T01:29:29.418Z,102393.25
2023-04-16T01:31:55.783Z,102403.13
2023-04-16T01:34:22.167Z,102404.88
2023-04-16T01:36:48.614Z,102402.19
2023-04-16T01:39:16.336Z,102395.13
2023-04-16T01:41:43.161Z,102403.91
2023-04-16T01:44:09.633Z,102402.88
2023-04-16T01:46:37.764Z,102409.81
2023-04-16T01:49:05.537Z,102408.06
2023-04-16T01:51:32.211Z,102407.19
2023-04-16T01:53:58.893Z,102408.16
2023-04-16T01:56:25.463Z,102409.81
2023-04-16T01:58:53.158Z,102408.84
2023-04-16T02:01:19.969Z,102401.97
2023-04-16T02:03:47.101Z,102408.97
2023-04-16T02:06:13.710Z,102410.78
2023-04-16T02:08:40.830Z,102404.88
2023-04-16T02:11:07.573Z,102404.88
2023-04-16T02:13:33.944Z,102408.22
2023-04-16T02:16:00.484Z,102408.38
2023-04-16T02:18:27.084Z,102403.97
2023-04-16T02:20:53.495Z,102410.00
2023-04-16T02:23:19.928Z,102399.56
2023-04-16T02:25:47.528Z,102400.38
2023-04-16T02:28:16.026Z,102409.06
2023-04-16T02:30:43.463Z,102398.59
2023-04-16T02:33:11.667Z,102401.09
2023-04-16T02:35:39.276Z,102402.84
2023-04-16T02:38:06.010Z,102401.00
2023-04-16T02:40:32.404Z,102405.28
2023-04-16T02:42:58.935Z,102403.53
2023-04-16T02:45:25.516Z,102404.41
2023-04-16T02:47:52.125Z,102402.59
2023-04-16T02:50:18.734Z,102408.53
2023-04-16T02:52:45.330Z,102405.94
2023-04-16T02:55:11.918Z,102405.97
2023-04-16T02:57:38.359Z,102406.91
2023-04-16T03:00:05.198Z,102410.53
2023-04-16T03:02:31.839Z,102409.53
2023-04-16T03:04:58.271Z,102415.72
2023-04-16T03:07:24.730Z,102410.47
2023-04-16T03:09:51.170Z,102407.69
2023-04-16T03:12:17.504Z,102414.66
2023-04-16T03:14:43.817Z,102420.75
2023-04-16T03:17:10.189Z,102418.22
2023-04-16T03:19:36.555Z,102413.81
2023-04-16T03:22:02.943Z,102419.88
2023-04-16T03:24:29.531Z,102424.31
2023-04-16T03:26:57.744Z,102420.97
2023-04-16T03:29:24.203Z,102426.19
2023-04-16T03:31:50.546Z,102432.41
2023-04-16T03:34:16.927Z,102438.53
2023-04-16T03:36:43.337Z,102432.41
2023-04-16T03:39:09.768Z,102428.84
2023-04-16T03:41:36.498Z,102433.13
2023-04-16T03:44:02.887Z,102431.50
2023-04-16T03:46:29.236Z,102433.28
2023-04-16T03:48:55.609Z,102440.44
2023-04-16T03:51:21.959Z,102430.88
2023-04-16T03:53:48.292Z,102439.63
2023-04-16T03:56:14.635Z,102445.81
2023-04-16T03:58:40.953Z,102437.06
2023-04-16T04:01:07.346Z,102450.06
2023-04-16T04:03:33.789Z,102434.50
2023-04-16T04:06:00.452Z,102441.41
2023-04-16T04:08:26.856Z,102437.06
2023-04-16T04:10:53.241Z,102437.84
2023-04-16T04:13:19.646Z,102442.25
2023-04-16T04:15:46.005Z,102444.81
2023-04-16T04:18:12.364Z,102444.78
2023-04-16T04:20:41.468Z,102442.16
2023-04-16T04:23:07.868Z,102440.38
2023-04-16T04:25:34.249Z,102441.09
2023-04-16T04:28:00.598Z,102444.63
2023-04-16T04:30:26.978Z,102449.13
2023-04-16T04:32:53.447Z,102446.47
2023-04-16T04:35:19.901Z,102449.81
2023-04-16T04:37:46.474Z,102452.56
2023-04-16T04:40:13.093Z,102459.69
2023-04-16T04:42:39.461Z,102459.69
2023-04-16T04:45:06.588Z,102459.69
2023-04-16T04:47:32.930Z,102469.25
2023-04-16T04:49:59.280Z,102461.50
2023-04-16T04:52:25.833Z,102472.06
2023-04-16T04:54:52.990Z,102478.06
2023-04-16T04:57:19.363Z,102475.34
2023-04-16T04:59:46.050Z,102473.59
2023-04-16T05:02:12.501Z,102472.88
2023-04-16T05:04:39.017Z,102467.78
2023-04-16T05:07:06.495Z,102471.28
2023-04-16T05:09:32.925Z,102479.09
2023-04-16T05:11:59.364Z,102474.72
2023-04-16T05:14:25.781Z,102469.44
2023-04-16T05:16:52.171Z,102475.50
2023-04-16T05:19:18.588Z,102468.53
2023-04-16T05:21:45.194Z,102470.16
2023-04-16T05:24:13.639Z,102475.25
2023-04-16T05:26:41.163Z,102480.53
2023-04-16T05:29:07.772Z,102473.72
2023-04-16T05:31:34.228Z,102479.94
2023-04-16T05:34:00.596Z,102480.75
2023-04-16T05:36:26.966Z,102499.91
2023-04-16T05:38:53.305Z,102479.00
2023-04-16T05:41:19.639Z,102483.31
2023-04-16T05:43:45.970Z,102488.50
2023-04-16T05:46:12.390Z,102481.63
2023-04-16T05:48:38.721Z,102486.75
2023-04-16T05:51:05.284Z,102494.69
2023-04-16T05:53:31.696Z,102493.78
2023-04-16T05:55:58.048Z,102506.78
2023-04-16T05:58:24.437Z,102498.09
2023-04-16T06:00:51.275Z,102505.28
2023-04-16T06:03:17.828Z,102502.59
2023-04-16T06:05:44.622Z,102500.75
2023-04-16T06:08:11.063Z,102497.25
2023-04-16T06:10:37.732Z,102505.97
2023-04-16T06:13:04.100Z,102505.84
2023-04-16T06:15:30.486Z,102510.25
2023-04-16T06:18:00.192Z,102510.25
2023-04-16T06:20:27.264Z,102507.78
2023-04-16T06:22:53.679Z,102509.56
2023-04-16T06:25:20.022Z,102514.72
2023-04-16T06:27:46.450Z,102529.53
2023-04-16T06:30:14.110Z,102522.53
2023-04-16T06:32:40.840Z,102529.50
2023-04-16T06:35:07.722Z,102521.53
2023-04-16T06:37:34.056Z,102528.50
2023-04-16T06:40:00.535Z,102525.06
2023-04-16T06:42:27.716Z,102534.63
2023-04-16T06:44:54.075Z,102529.41
2023-04-16T06:47:21.048Z,102534.59
2023-04-16T06:49:47.428Z,102540.78
2023-04-16T06:52:13.781Z,102527.63
2023-04-16T06:54:40.149Z,102544.06
2023-04-16T06:57:06.460Z,102545.09
2023-04-16T06:59:32.842Z,102540.78
2023-04-16T07:01:59.329Z,102550.47
2023-04-16T07:04:26.003Z,102549.72
2023-04-16T07:06:52.588Z,102550.53
2023-04-16T07:09:19.122Z,102547.00
2023-04-16T07:11:45.663Z,102555.63
2023-04-16T07:14:12.054Z,102559.16
2023-04-16T07:16:38.447Z,102560.91
2023-04-16T07:19:04.846Z,102566.91
2023-04-16T07:21:31.800Z,102564.38
2023-04-16T07:23:58.115Z,102568.72
2023-04-16T07:26:24.468Z,102563.47
2023-04-16T07:28:50.785Z,102568.63
2023-04-16T07:31:17.414Z,102570.38
2023-04-16T07:33:43.949Z,102566.00
2023-04-16T07:36:10.973Z,102574.56
2023-04-16T07:38:37.349Z,102571.91
2023-04-16T07:41:03.910Z,102569.47
2023-04-16T07:43:30.422Z,102575.50
2023-04-16T07:45:56.958Z,102574.66
2023-04-16T07:48:23.475Z,102587.72
2023-04-16T07:50:50.237Z,102588.53
2023-04-16T07:53:16.673Z,102591.16
2023-04-16T07:55:43.068Z,102589.38
2023-04-16T07:58:09.542Z,102599.06
2023-04-16T08:00:36.014Z,102608.66
2023-04-16T08:03:02.596Z,102606.13
2023-04-16T08:05:29.292Z,102607.06
2023-04-16T08:07:56.037Z,102607.06
2023-04-16T08:10:22.477Z,102602.63
2023-04-16T08:12:48.955Z,102610.50
2023-04-16T08:15:15.379Z,102615.75
2023-04-16T08:17:42.079Z,102614.91
2023-04-16T08:20:09.514Z,102623.50
2023-04-16T08:22:36.937Z,102620.78
2023-04-16T08:25:04.003Z,102627.72
2023-04-16T08:27:30.341Z,102621.53
2023-04-16T08:29:56.832Z,102624.16
2023-04-16T08:32:23.202Z,102638.00
2023-04-16T08:34:49.710Z,102623.03
2023-04-16T08:37:16.095Z,102635.41
2023-04-16T08:39:42.504Z,102633.72
2023-04-16T08:42:16.248Z,102637.28
2023-04-16T08:44:49.410Z,102637.13
2023-04-16T08:47:16.352Z,102642.31
2023-04-16T08:49:44.972Z,102646.63
2023-04-16T08:52:18.273Z,102643.88
2023-04-16T08:55:14.330Z,102638.75
2023-04-16T08:57:48.846Z,102645.78
2023-04-16T09:00:18.048Z,102644.81
2023-04-16T09:02:44.910Z,102643.06
2023-04-16T09:05:16.975Z,102650.06
2023-04-16T09:07:49.034Z,102641.28
2023-04-16T09:10:16.449Z,102643.81
2023-04-16T09:12:43.312Z,102654.31
2023-04-16T09:15:11.294Z,102638.56
2023-04-16T09:17:38.041Z,102645.44
2023-04-16T09:20:09.177Z,102658.53
2023-04-16T09:22:36.639Z,102649.66
2023-04-16T09:25:03.576Z,102650.59
2023-04-16T09:27:30.702Z,102655.09
2023-04-16T09:29:57.116Z,102654.22
2023-04-16T09:32:28.062Z,102663.78
2023-04-16T09:34:58.516Z,102664.66
2023-04-16T09:37:27.159Z,102660.25
2023-04-16T09:39:58.827Z,102662.88
2023-04-16T09:42:30.809Z,102669.91
2023-04-16T09:44:59.873Z,102673.31
2023-04-16T09:47:40.060Z,102675.06
2023-04-16T09:50:08.545Z,102674.13
2023-04-16T09:52:40.785Z,102678.44
2023-04-16T09:55:07.435Z,102680.31
2023-04-16T09:57:38.267Z,102688.28
2023-04-16T10:00:08.805Z,102688.31
2023-04-16T10:02:39.017Z,102682.13
2023-04-16T10:05:06.393Z,102687.38
2023-04-16T10:07:37.546Z,102690.84
2023-04-16T10:10:04.659Z,102686.38
2023-04-16T10:12:32.792Z,102688.97
2023-04-16T10:14:59.424Z,102688.91
2023-04-16T10:17:26.439Z,102693.19
2023-04-16T10:19:54.671Z,102697.59
2023-04-16T10:22:21.353Z,102688.78
2023-04-16T10:24:48.873Z,102691.41
2023-04-16T10:27:16.584Z,102692.25
2023-04-16T10:29:44.433Z,102694.81
2023-04-16T10:32:11.681Z,102693.94
2023-04-16T10:34:38.113Z,102696.56
2023-04-16T10:37:04.606Z,102688.69
2023-04-16T10:39:31.029Z,102693.88
2023-04-16T10:42:08.687Z,102699.19
2023-04-16T10:44:35.396Z,102693.94
2023-04-16T10:47:01.860Z,102701.75
2023-04-16T10:49:28.264Z,102699.13
2023-04-16T10:52:07.492Z,102704.28
2023-04-16T10:54:36.098Z,102704.38
2023-04-16T10:57:07.078Z,102702.63
2023-04-16T10:59:36.018Z,102702.63
2023-04-16T11:02:08.570Z,102696.50
2023-04-16T11:04:37.500Z,102700.81
2023-04-16T11:07:05.615Z,102696.34
2023-04-16T11:09:45.901Z,102702.41
2023-04-16T11:12:14.763Z,102699.66
2023-04-16T11:14:42.000Z,102696.16
2023-04-16T11:17:09.436Z,102699.66
2023-04-16T11:19:36.971Z,102698.72
2023-04-16T11:22:03.969Z,102696.09
2023-04-16T11:24:31.746Z,102697.78
2023-04-16T11:26:58.200Z,102696.91
2023-04-16T11:29:24.789Z,102696.84
2023-04-16T11:31:52.046Z,102713.53
2023-04-16T11:34:19.129Z,102705.50
2023-04-16T11:36:46.661Z,102708.97
2023-04-16T11:39:13.122Z,102702.00
2023-04-16T11:41:52.273Z,102707.34
2023-04-16T11:44:22.516Z,102707.34
2023-04-16T11:46:49.830Z,102710.75
2023-04-16T11:49:17.586Z,102702.00
2023-04-16T11:51:45.616Z,102714.28
2023-04-16T11:54:20.294Z,102710.84
2023-04-16T11:56:48.315Z,102709.06
2023-04-16T11:59:18.983Z,102702.09
2023-04-16T12:01:48.002Z,102708.22
2023-04-16T12:04:16.494Z,102713.47
2023-04-16T12:07:05.620Z,102709.91
2023-04-16T12:09:32.260Z,102717.69
2023-04-16T12:11:58.582Z,102714.13
2023-04-16T12:14:24.887Z,102716.78
2023-04-16T12:16:51.452Z,102717.53
2023-04-16T12:19:18.750Z,102716.59
2023-04-16T12:21:47.161Z,102727.06
2023-04-16T12:24:21.076Z,102724.31
2023-04-16T12:26:52.050Z,102722.59
2023-04-16T12:29:27.436Z,102726.84
2023-04-16T12:31:54.424Z,102726.94
2023-04-16T12:34:21.799Z,102727.00
2023-04-16T12:37:09.577Z,102733.25
2023-04-16T12:39:36.083Z,102733.34
2023-04-16T12:42:03.711Z,102728.81
2023-04-16T12:44:30.149Z,102734.91
2023-04-16T12:46:56.947Z,102728.78
2023-04-16T12:49:23.264Z,102728.81
2023-04-16T12:51:49.891Z,102729.72
2023-04-16T12:54:16.496Z,102733.22
2023-04-16T12:56:42.828Z,102729.66
2023-04-16T13:01:37.090Z,102733.78
2023-04-16T13:04:04.077Z,102728.56
2023-04-16T13:06:33.631Z,102733.75
2023-04-16T13:09:00.627Z,102735.66
2023-04-16T13:11:27.378Z,102734.81
2023-04-16T13:13:53.835Z,102730.34
2023-04-16T13:16:20.258Z,102731.19
2023-04-16T13:18:46.832Z,102739.88
2023-04-16T13:21:13.413Z,102733.88
2023-04-16T13:23:39.860Z,102736.44
2023-04-16T13:26:06.245Z,102728.66
2023-04-16T13:28:32.609Z,102725.09
2023-04-16T13:30:59.622Z,102724.94
2023-04-16T13:33:26.584Z,102729.25
2023-04-16T13:35:53.044Z,102719.59
2023-04-16T13:38:19.397Z,102728.31
2023-04-16T13:40:45.916Z,102730.03
2023-04-16T13:43:13.721Z,102727.34
2023-04-16T13:45:40.253Z,102729.94
2023-04-16T13:48:06.683Z,102726.41
2023-04-16T13:50:33.239Z,102728.19
2023-04-16T13:52:59.629Z,102730.88
2023-04-16T13:55:26.117Z,102724.88
2023-04-16T13:57:53.206Z,102731.94
2023-04-16T14:00:20.314Z,102726.69
2023-04-16T14:02:48.589Z,102723.91
2023-04-16T14:05:15.512Z,102724.00
2023-04-16T14:07:42.040Z,102723.91
2023-04-16T14:10:09.000Z,102726.47
2023-04-16T14:12:36.556Z,102724.69
2023-04-16T14:15:04.436Z,102721.06
2023-04-16T14:17:30.986Z,102725.28
2023-04-16T14:19:57.407Z,102719.19
2023-04-16T14:22:23.905Z,102720.00
2023-04-16T14:24:50.325Z,102725.97
2023-04-16T14:27:17.120Z,102724.13
2023-04-16T14:29:44.304Z,102722.34
2023-04-16T14:32:10.835Z,102723.19
2023-04-16T14:34:37.302Z,102720.66
2023-04-16T14:37:04.207Z,102719.84
2023-04-16T14:39:30.980Z,102726.03
2023-04-16T14:41:57.404Z,102723.41
2023-04-16T14:44:23.901Z,102726.03
2023-04-16T14:46:50.445Z,102732.84
2023-04-16T14:49:17.164Z,102728.56
2023-04-16T14:51:45.585Z,102724.19
2023-04-16T14:54:11.987Z,102715.34
2023-04-16T14:56:38.325Z,102710.97
2023-04-16T14:59:04.725Z,102710.88
2023-04-16T15:01:32.078Z,102707.34
2023-04-16T15:04:01.906Z,102703.72
2023-04-16T15:06:29.572Z,102707.22
2023-04-16T15:08:55.975Z,102704.59
2023-04-16T15:11:22.396Z,102712.38
2023-04-16T15:13:48.739Z,102702.75
2023-04-16T15:16:15.327Z,102707.09
2023-04-16T15:18:41.811Z,102714.09
2023-04-16T15:21:09.111Z,102712.25
2023-04-16T15:23:37.154Z,102709.56
2023-04-16T15:26:03.694Z,102718.28
2023-04-16T15:28:30.126Z,102715.00
2023-04-16T15:30:57.240Z,102713.31
2023-04-16T15:33:23.956Z,102717.69
2023-04-16T15:35:51.623Z,102714.16
2023-04-16T15:38:21.203Z,102717.56
2023-04-16T15:40:48.061Z,102718.28
2023-04-16T15:43:15.608Z,102714.66
2023-04-16T15:45:41.925Z,102712.25
2023-04-16T15:48:08.804Z,102713.22
2023-04-16T15:50:35.750Z,102711.53
2023-04-16T15:53:02.195Z,102712.47
2023-04-16T15:55:29.033Z,102712.50
2023-04-16T15:57:55.550Z,102720.38
2023-04-16T16:00:22.402Z,102708.91
2023-04-16T16:02:48.875Z,102719.25
2023-04-16T16:05:16.424Z,102713.94
2023-04-16T16:07:43.794Z,102717.63
2023-04-16T16:10:11.532Z,102711.53
2023-04-16T16:12:37.893Z,102714.25
2023-04-16T16:15:05.028Z,102708.16
2023-04-16T16:17:31.488Z,102709.09
2023-04-16T16:20:01.019Z,102712.56
2023-04-16T16:22:27.574Z,102710.75
2023-04-16T16:24:56.231Z,102718.53
2023-04-16T16:27:22.879Z,102721.28
2023-04-16T16:29:49.327Z,102717.94
2023-04-16T16:32:16.591Z,102716.31
2023-04-16T16:34:43.190Z,102718.16
2023-04-16T16:37:09.633Z,102714.69
2023-04-16T16:39:38.320Z,102720.03
2023-04-16T16:42:05.203Z,102721.84
2023-04-16T16:44:31.658Z,102715.72
2023-04-16T16:46:58.137Z,102707.69
2023-04-16T16:49:24.547Z,102717.25
2023-04-16T16:51:50.882Z,102718.13
2023-04-16T16:54:17.238Z,102719.03
2023-04-16T16:56:43.581Z,102721.72
2023-04-16T16:59:10.618Z,102721.72
2023-04-16T17:01:37.287Z,102730.44
2023-04-16T17:04:04.095Z,102727.72
2023-04-16T17:06:31.630Z,102728.75
2023-04-16T17:08:58.036Z,102727.88
2023-04-16T17:11:26.943Z,102735.81
2023-04-16T17:13:53.675Z,102732.41
2023-04-16T17:16:20.092Z,102734.25
2023-04-16T17:18:46.591Z,102727.16
2023-04-16T17:21:14.569Z,102733.34
2023-04-16T17:23:42.800Z,102742.22
2023-04-16T17:26:09.117Z,102749.25
2023-04-16T17:28:35.454Z,102745.75
2023-04-16T17:31:02.810Z,102748.44
2023-04-16T17:33:29.237Z,102750.25
2023-04-16T17:35:55.744Z,102750.41
2023-04-16T17:38:22.177Z,102750.47
2023-04-16T17:40:48.527Z,102761.00
2023-04-16T17:43:14.964Z,102764.44
2023-04-16T17:45:41.395Z,102760.03
2023-04-16T17:48:07.795Z,102760.03
2023-04-16T17:50:34.176Z,102768.81
2023-04-16T17:53:03.615Z,102774.06
2023-04-16T17:55:30.853Z,102776.69
2023-04-16T17:57:57.245Z,102769.75
2023-04-16T18:00:23.750Z,102777.88
2023-04-16T18:02:52.321Z,102783.31
2023-04-16T18:05:21.951Z,102782.41
2023-04-16T18:07:48.367Z,102779.13
2023-04-16T18:10:14.891Z,102782.78
2023-04-16T18:12:41.297Z,102788.03
2023-04-16T18:15:08.342Z,102785.53
2023-04-16T18:17:34.782Z,102793.53
2023-04-16T18:20:01.247Z,102795.34
2023-04-16T18:22:28.518Z,102795.31
2023-04-16T18:24:55.097Z,102791.00
2023-04-16T18:27:21.582Z,102787.44
2023-04-16T18:29:49.376Z,102792.59
2023-04-16T18:32:16.122Z,102803.94
2023-04-16T18:34:42.611Z,102802.19
2023-04-16T18:37:08.949Z,102804.91
2023-04-16T18:39:36.697Z,102812.91
2023-04-16T18:42:03.850Z,102812.03
2023-04-16T18:44:30.429Z,102811.16
2023-04-16T18:46:56.946Z,102812.03
2023-04-16T18:49:23.605Z,102820.63
2023-04-16T18:51:49.983Z,102815.34
2023-04-16T18:54:16.510Z,102821.47
2023-04-16T18:56:42.908Z,102814.53
2023-04-16T18:59:09.529Z,102821.56
2023-04-16T19:01:36.269Z,102824.31
2023-04-16T19:04:03.399Z,102826.97
2023-04-16T19:06:29.996Z,102833.13
2023-04-16T19:08:56.434Z,102829.84
2023-04-16T19:11:22.876Z,102830.75
2023-04-16T19:13:49.228Z,102832.50
2023-04-16T19:16:15.750Z,102825.38
2023-04-16T19:18:42.265Z,102839.34
2023-04-16T19:21:10.682Z,102831.38
2023-04-16T19:23:37.351Z,102839.47
2023-04-16T19:26:03.787Z,102834.38
2023-04-16T19:28:30.221Z,102839.63
2023-04-16T19:30:56.616Z,102837.84
2023-04-16T19:33:23.002Z,102837.75
2023-04-16T19:35:49.397Z,102835.97
2023-04-16T19:38:15.744Z,102834.06
2023-04-16T19:40:46.548Z,102830.75
2023-04-16T19:43:13.066Z,102831.66
2023-04-16T19:45:43.821Z,102839.78
2023-04-16T19:48:11.127Z,102827.47
2023-04-16T19:50:41.456Z,102841.41
2023-04-16T19:53:08.536Z,102837.84
2023-04-16T19:55:34.984Z,102838.59
2023-04-16T19:58:05.526Z,102843.84
2023-04-16T20:00:33.079Z,102839.41
2023-04-16T20:02:59.619Z,102838.63
2023-04-16T20:05:27.028Z,102843.97
2023-04-16T20:07:54.084Z,102845.72
2023-04-16T20:10:20.875Z,102843.06
2023-04-16T20:12:47.516Z,102849.31
2023-04-16T20:15:13.913Z,102844.03
2023-04-16T20:17:40.378Z,102854.50
2023-04-16T20:20:09.913Z,102852.09
2023-04-16T20:22:40.005Z,102859.13
2023-04-16T20:25:07.484Z,102848.63
2023-04-16T20:27:33.945Z,102846.94
2023-04-16T20:30:01.256Z,102845.84
2023-04-16T20:32:28.118Z,102846.66
2023-04-16T20:34:55.577Z,102842.44
2023-04-16T20:37:22.050Z,102853.88
2023-04-16T20:39:49.986Z,102849.63
2023-04-16T20:42:16.761Z,102854.03
2023-04-16T20:44:50.046Z,102842.63
2023-04-16T20:47:17.189Z,102842.75
2023-04-16T20:49:46.722Z,102843.66
2023-04-16T20:52:14.003Z,102843.78
2023-04-16T20:54:40.859Z,102835.13
2023-04-16T20:57:07.464Z,102842.94
2023-04-16T20:59:34.018Z,102836.63
2023-04-16T21:02:00.539Z,102834.75
2023-04-16T21:04:27.202Z,102830.25
2023-04-16T21:06:53.731Z,102829.47
2023-04-16T21:09:20.777Z,102832.91
2023-04-16T21:11:47.178Z,102835.50
2023-04-16T21:14:13.752Z,102839.13
2023-04-16T21:16:40.316Z,102831.53
2023-04-16T21:19:08.646Z,102827.97
2023-04-16T21:21:35.360Z,102826.13
2023-04-16T21:24:01.815Z,102822.69
2023-04-16T21:26:28.208Z,102839.34
2023-04-16T21:28:55.204Z,102832.63
2023-04-16T21:31:21.978Z,102831.81
2023-04-16T21:33:48.486Z,102824.03
2023-04-16T21:36:15.441Z,102831.91
2023-04-16T21:38:41.834Z,102832.56
2023-04-16T21:41:08.212Z,102827.22
2023-04-16T21:43:34.634Z,102824.56
2023-04-16T21:46:00.984Z,102828.91
2023-04-16T21:48:28.484Z,102836.06
2023-04-16T21:50:59.910Z,102839.69
2023-04-16T21:53:28.063Z,102837.88
2023-04-16T21:55:54.487Z,102830.84
2023-04-16T21:58:20.951Z,102831.66
2023-04-16T22:00:47.485Z,102838.63
2023-04-16T22:03:14.800Z,102839.53
2023-04-16T22:05:41.297Z,102836.00
2023-04-16T22:08:23.585Z,102838.63
2023-04-16T22:10:51.238Z,102839.53
2023-04-16T22:13:17.723Z,102822.91
2023-04-16T22:15:44.074Z,102831.56
2023-04-16T22:18:10.405Z,102837.69
2023-04-16T22:20:39.119Z,102826.31
2023-04-16T22:23:06.488Z,102828.19
2023-04-16T22:25:33.030Z,102824.59
2023-04-16T22:28:01.234Z,102833.31
2023-04-16T22:30:27.611Z,102833.56
2023-04-16T22:32:54.071Z,102824.91
2023-04-16T22:35:20.511Z,102825.69
2023-04-16T22:37:46.885Z,102836.16
2023-04-16T22:40:13.267Z,102831.13
2023-04-16T22:42:39.659Z,102840.72
2023-04-16T22:45:07.160Z,102827.56
2023-04-16T22:47:33.633Z,102829.34
2023-04-16T22:50:00.245Z,102827.66
2023-04-16T22:52:27.389Z,102833.75
2023-04-16T22:54:53.749Z,102829.34
2023-04-16T22:57:24.683Z,102835.41
2023-04-16T22:59:52.126Z,102824.88
2023-04-16T23:02:19.363Z,102826.66
2023-04-16T23:04:48.822Z,102830.16
2023-04-16T23:07:15.706Z,102829.34
2023-04-16T23:09:42.452Z,102834.50
2023-04-16T23:12:08.928Z,102835.31
2023-04-16T23:14:36.751Z,102837.06
2023-04-16T23:17:03.182Z,102831.81
2023-04-16T23:19:31.109Z,102830.13
2023-04-16T23:21:57.706Z,102830.16
2023-04-16T23:24:24.083Z,102837.28
2023-04-16T23:26:52.385Z,102833.00
2023-04-16T23:29:19.194Z,102839.94
2023-04-16T23:31:45.712Z,102840.81
2023-04-16T23:34:12.054Z,102845.13
2023-04-16T23:36:39.178Z,102843.34
2023-04-16T23:39:05.488Z,102839.84
2023-04-16T23:41:31.946Z,102840.72
2023-04-16T23:43:58.359Z,102844.19
2023-04-16T23:46:24.789Z,102845.97
2023-04-16T23:48:52.585Z,102845.91
2023-04-16T23:51:18.988Z,102850.25
2023-04-16T23:53:45.360Z,102841.53
2023-04-16T23:56:11.825Z,102845.19
2023-04-16T23:58:38.220Z,102834.81
